Time;durP1;ratioP1;P1;durP2;ratioP2;P2;SDS_P1;SDS_P2;PMS_P1;PMS_P2;Temp;Humidity;BMP_temperature;BMP_pressure;BME280_temperature;BME280_humidity;BME280_pressure;Samples;Min_cycle;Max_cycle;Signal;HPM_P1;HPM_P2
2022/07/18 00:02:30;;;;;;;3.20;2.90;;;15.70;99.90;;;;;;5052503;28;20485;-75
2022/07/18 00:05:18;;;;;;;2.90;2.70;;;15.70;99.90;;;;;;5039812;28;20538;-75
2022/07/18 00:08:06;;;;;;;2.70;2.50;;;15.70;99.90;;;;;;5040184;28;20459;-75
2022/07/18 00:10:55;;;;;;;3.20;3.00;;;15.60;99.90;;;;;;5046801;28;20583;-75
2022/07/18 00:13:44;;;;;;;3.07;2.87;;;15.60;99.90;;;;;;5044342;28;20546;-75
2022/07/18 00:16:32;;;;;;;3.47;3.17;;;15.60;99.90;;;;;;5040577;28;20472;-75
2022/07/18 00:19:22;;;;;;;3.17;2.70;;;15.60;99.90;;;;;;5040016;28;20459;-75
2022/07/18 00:22:10;;;;;;;3.73;3.40;;;15.50;99.90;;;;;;5046007;28;21088;-75
2022/07/18 00:24:58;;;;;;;4.47;3.30;;;15.50;99.90;;;;;;5035528;28;20452;-75
2022/07/18 00:27:46;;;;;;;3.30;3.00;;;15.40;99.90;;;;;;5052459;28;20512;-75
2022/07/18 00:30:36;;;;;;;3.30;3.10;;;15.50;99.90;;;;;;5043919;28;20983;-75
2022/07/18 00:33:24;;;;;;;4.30;2.73;;;15.50;99.90;;;;;;5050862;28;20588;-75
2022/07/18 00:36:13;;;;;;;3.00;2.73;;;15.50;99.90;;;;;;5044042;28;20899;-75
2022/07/18 00:39:01;;;;;;;2.90;2.67;;;15.40;99.90;;;;;;5045661;28;20490;-75
2022/07/18 00:41:50;;;;;;;2.80;2.60;;;15.40;99.90;;;;;;5040396;28;21055;-75
2022/07/18 00:44:38;;;;;;;3.20;2.90;;;15.40;99.90;;;;;;5039410;28;20977;-73
2022/07/18 00:47:28;;;;;;;2.90;2.67;;;15.40;99.90;;;;;;5050618;28;20934;-73
2022/07/18 00:50:16;;;;;;;2.60;2.40;;;15.30;99.90;;;;;;5039595;28;20557;-76
2022/07/18 00:53:05;;;;;;;2.73;2.53;;;15.30;99.90;;;;;;5048486;28;20990;-73
2022/07/18 00:55:54;;;;;;;2.40;2.20;;;15.30;99.90;;;;;;5050880;28;20521;-73
2022/07/18 00:58:44;;;;;;;3.30;2.93;;;15.30;99.90;;;;;;5048131;28;20477;-73
2022/07/18 01:01:43;;;;;;;3.17;2.87;;;15.30;99.90;;;;;;5043253;28;20464;-73
2022/07/18 01:04:33;;;;;;;3.33;3.03;;;15.20;99.90;;;;;;5044610;28;20454;-75
2022/07/18 01:07:21;;;;;;;3.50;3.20;;;15.20;99.90;;;;;;5045003;28;20557;-74
2022/07/18 01:10:10;;;;;;;2.77;2.57;;;15.20;99.90;;;;;;5042017;28;20458;-75
2022/07/18 01:12:58;;;;;;;3.03;2.83;;;15.20;99.90;;;;;;5036892;28;20462;-74
2022/07/18 01:15:46;;;;;;;2.90;2.60;;;15.20;99.90;;;;;;5039280;28;20537;-73
2022/07/18 01:18:34;;;;;;;3.03;2.70;;;15.10;99.90;;;;;;5041852;28;20863;-74
2022/07/18 01:21:24;;;;;;;3.13;2.93;;;15.10;99.90;;;;;;5046674;28;20604;-74
2022/07/18 01:24:13;;;;;;;3.13;2.77;;;15.10;99.90;;;;;;5037272;28;20945;-73
2022/07/18 01:27:01;;;;;;;2.60;2.40;;;15.10;99.90;;;;;;5038955;28;20914;-74
2022/07/18 01:29:52;;;;;;;3.23;2.93;;;15.10;99.90;;;;;;5039940;28;21089;-73
2022/07/18 01:32:41;;;;;;;3.40;3.10;;;15.10;99.90;;;;;;5033821;28;20946;-74
2022/07/18 01:35:31;;;;;;;4.13;3.00;;;15.00;99.90;;;;;;5038386;28;20999;-73
2022/07/18 01:38:21;;;;;;;2.87;2.67;;;15.00;99.90;;;;;;5038725;28;20502;-74
2022/07/18 01:41:09;;;;;;;2.90;2.60;;;15.00;99.90;;;;;;5038762;28;20447;-73
2022/07/18 01:43:57;;;;;;;2.93;2.63;;;15.00;99.90;;;;;;5043012;28;20451;-74
2022/07/18 01:46:45;;;;;;;3.27;3.07;;;14.90;99.90;;;;;;5043730;28;20541;-74
2022/07/18 01:49:34;;;;;;;2.90;2.70;;;14.90;99.90;;;;;;5040773;28;20921;-74
2022/07/18 01:52:22;;;;;;;3.30;3.10;;;14.90;99.90;;;;;;5038756;28;20527;-74
2022/07/18 01:55:12;;;;;;;3.10;2.90;;;14.90;99.90;;;;;;5048966;28;20585;-74
2022/07/18 01:58:02;;;;;;;3.47;3.17;;;14.90;99.90;;;;;;5042728;28;20672;-74
2022/07/18 02:00:51;;;;;;;3.50;3.20;;;14.80;99.90;;;;;;5036296;28;20970;-74
2022/07/18 02:03:39;;;;;;;3.40;3.20;;;14.80;99.90;;;;;;5032316;28;20454;-74
2022/07/18 02:06:27;;;;;;;3.20;3.00;;;14.80;99.90;;;;;;5048111;28;20546;-74
2022/07/18 02:09:16;;;;;;;3.10;2.90;;;14.80;99.90;;;;;;5038216;28;20443;-74
2022/07/18 02:12:06;;;;;;;3.10;2.90;;;14.80;99.90;;;;;;5039295;28;20594;-74
2022/07/18 02:14:54;;;;;;;3.53;3.17;;;14.80;99.90;;;;;;5034476;28;20545;-74
2022/07/18 02:17:43;;;;;;;3.73;2.97;;;14.80;99.90;;;;;;5042621;28;20569;-74
2022/07/18 02:20:32;;;;;;;3.23;3.00;;;14.70;99.90;;;;;;5039354;28;20459;-74
2022/07/18 02:23:20;;;;;;;3.17;2.97;;;14.70;99.90;;;;;;5039814;28;20520;-74
2022/07/18 02:26:08;;;;;;;3.20;2.90;;;14.70;99.90;;;;;;5034567;28;21123;-74
2022/07/18 02:28:58;;;;;;;3.50;3.20;;;14.70;99.90;;;;;;5037421;28;20467;-74
2022/07/18 02:31:46;;;;;;;2.80;2.60;;;14.70;99.90;;;;;;5042485;28;20617;-74
2022/07/18 02:34:35;;;;;;;2.87;2.67;;;14.70;99.90;;;;;;5037495;28;20624;-74
2022/07/18 02:37:23;;;;;;;3.30;3.10;;;14.70;99.90;;;;;;5045169;28;20561;-73
2022/07/18 02:40:12;;;;;;;3.00;2.70;;;14.60;99.90;;;;;;5046419;28;20588;-74
2022/07/18 02:43:01;;;;;;;2.30;2.20;;;14.60;99.90;;;;;;5040154;28;20491;-74
2022/07/18 02:45:50;;;;;;;3.33;3.03;;;14.60;99.90;;;;;;5034102;28;20600;-74
2022/07/18 02:48:38;;;;;;;3.30;3.10;;;14.60;99.90;;;;;;5039306;28;20562;-74
2022/07/18 02:51:27;;;;;;;3.10;2.80;;;14.60;99.90;;;;;;5048222;28;20478;-74
2022/07/18 02:54:15;;;;;;;3.50;3.20;;;14.60;99.90;;;;;;5047440;28;20446;-74
2022/07/18 02:57:04;;;;;;;3.37;3.13;;;14.60;99.90;;;;;;5040150;28;20486;-74
2022/07/18 02:59:52;;;;;;;3.00;2.70;;;14.50;99.90;;;;;;5041529;28;20938;-74
2022/07/18 03:02:42;;;;;;;3.43;3.07;;;14.50;99.90;;;;;;5058432;28;20607;-73
2022/07/18 03:05:31;;;;;;;3.30;3.00;;;14.50;99.90;;;;;;5046619;28;20472;-76
2022/07/18 03:08:19;;;;;;;3.33;3.03;;;14.50;99.90;;;;;;5039986;28;20465;-73
2022/07/18 03:11:07;;;;;;;3.40;3.10;;;14.50;99.90;;;;;;5045026;28;20452;-73
2022/07/18 03:13:56;;;;;;;3.60;3.30;;;14.50;99.90;;;;;;5037408;28;20616;-73
2022/07/18 03:16:44;;;;;;;3.30;3.00;;;14.50;99.90;;;;;;5048702;28;20557;-74
2022/07/18 03:19:34;;;;;;;3.07;2.87;;;14.40;99.90;;;;;;5052982;28;20802;-74
2022/07/18 03:22:22;;;;;;;3.37;3.07;;;14.40;99.90;;;;;;5040145;28;20446;-74
2022/07/18 03:25:10;;;;;;;3.67;3.27;;;14.40;99.90;;;;;;5039280;28;20443;-74
2022/07/18 03:28:03;;;;;;;3.10;2.90;;;14.40;99.90;;;;;;5043178;28;20462;-74
2022/07/18 03:30:51;;;;;;;2.90;2.70;;;14.40;99.90;;;;;;5048749;28;20463;-73
2022/07/18 03:33:40;;;;;;;3.80;3.50;;;14.50;99.90;;;;;;5046086;28;20612;-74
2022/07/18 03:36:30;;;;;;;3.53;3.23;;;14.50;99.90;;;;;;5044165;28;20460;-74
2022/07/18 03:39:18;;;;;;;3.30;3.10;;;14.40;99.90;;;;;;5045945;28;20477;-74
2022/07/18 03:42:07;;;;;;;3.80;3.50;;;14.40;99.90;;;;;;5043107;28;20455;-74
2022/07/18 03:44:55;;;;;;;5.00;3.23;;;14.50;99.90;;;;;;5050490;28;20576;-74
2022/07/18 03:47:43;;;;;;;4.50;3.70;;;14.50;99.90;;;;;;5050339;28;20568;-73
2022/07/18 03:50:33;;;;;;;4.80;3.70;;;14.50;99.90;;;;;;5044482;28;20540;-73
2022/07/18 03:53:23;;;;;;;5.50;4.37;;;14.60;99.90;;;;;;5044895;28;20518;-74
2022/07/18 03:56:11;;;;;;;4.40;4.10;;;14.60;99.90;;;;;;5037512;28;20447;-73
2022/07/18 03:58:59;;;;;;;4.53;3.70;;;14.60;99.90;;;;;;5043318;28;20470;-73
2022/07/18 04:01:47;;;;;;;4.20;3.80;;;14.60;99.90;;;;;;5043558;28;20482;-73
2022/07/18 04:04:36;;;;;;;4.20;3.80;;;14.60;99.90;;;;;;5035553;28;21288;-74
2022/07/18 04:07:24;;;;;;;6.07;4.13;;;14.60;99.90;;;;;;5048287;28;20524;-73
2022/07/18 04:10:14;;;;;;;4.40;4.00;;;14.60;99.90;;;;;;5037617;28;20443;-74
2022/07/18 04:13:02;;;;;;;5.80;4.93;;;14.60;99.90;;;;;;5036782;28;20451;-73
2022/07/18 04:15:51;;;;;;;4.83;4.43;;;14.70;99.90;;;;;;5041845;28;20537;-73
2022/07/18 04:18:39;;;;;;;4.97;4.50;;;14.70;99.90;;;;;;5045486;28;20489;-74
2022/07/18 04:21:27;;;;;;;5.20;4.70;;;14.70;99.90;;;;;;5044319;28;20454;-74
2022/07/18 04:24:15;;;;;;;5.87;5.00;;;14.80;99.90;;;;;;5036503;28;20626;-74
2022/07/18 04:27:05;;;;;;;4.97;4.57;;;14.80;99.90;;;;;;5042944;28;20483;-73
2022/07/18 04:29:56;;;;;;;4.97;4.50;;;14.80;99.90;;;;;;5044866;28;21202;-75
2022/07/18 04:32:44;;;;;;;5.33;4.57;;;14.80;99.90;;;;;;5035676;28;20958;-74
2022/07/18 04:35:42;;;;;;;6.20;5.13;;;14.90;99.90;;;;;;5045970;28;20484;-75
2022/07/18 04:38:34;;;;;;;5.97;5.33;;;14.90;99.90;;;;;;5044382;28;20628;-75
2022/07/18 04:41:24;;;;;;;6.53;4.87;;;14.90;99.90;;;;;;5037897;28;20443;-74
2022/07/18 04:44:14;;;;;;;5.70;5.20;;;14.90;99.90;;;;;;5039633;28;20447;-74
2022/07/18 04:47:02;;;;;;;5.30;4.73;;;15.00;99.90;;;;;;5048329;28;20547;-74
2022/07/18 04:49:50;;;;;;;5.60;5.10;;;15.00;99.90;;;;;;5034618;28;20534;-74
2022/07/18 04:52:40;;;;;;;6.53;4.90;;;15.00;99.90;;;;;;5038923;28;20544;-74
2022/07/18 04:55:29;;;;;;;5.27;4.77;;;15.00;99.90;;;;;;5039860;28;20508;-75
2022/07/18 04:58:17;;;;;;;5.83;5.30;;;15.10;99.90;;;;;;5035944;28;20540;-74
2022/07/18 05:01:06;;;;;;;5.70;4.97;;;15.10;99.90;;;;;;5044424;28;20947;-74
2022/07/18 05:03:55;;;;;;;5.63;5.00;;;15.20;99.90;;;;;;5040181;28;20628;-75
2022/07/18 05:06:43;;;;;;;6.37;5.70;;;15.20;99.90;;;;;;5037061;28;20706;-74
2022/07/18 05:09:31;;;;;;;6.67;6.07;;;15.30;99.90;;;;;;5042278;28;20542;-75
2022/07/18 05:12:23;;;;;;;6.63;6.00;;;15.40;99.90;;;;;;5036396;28;20481;-75
2022/07/18 05:15:14;;;;;;;6.57;5.97;;;15.40;99.90;;;;;;5040478;28;20462;-75
2022/07/18 05:18:03;;;;;;;6.17;5.60;;;15.50;99.90;;;;;;5050941;28;20482;-75
2022/07/18 05:20:52;;;;;;;6.77;6.13;;;15.50;99.90;;;;;;5051131;28;20550;-74
2022/07/18 05:23:40;;;;;;;6.70;6.00;;;15.50;99.90;;;;;;5046768;28;20542;-74
2022/07/18 05:26:28;;;;;;;6.97;5.53;;;15.60;99.90;;;;;;5046894;28;20474;-75
2022/07/18 05:29:23;;;;;;;6.83;6.10;;;15.60;99.90;;;;;;5048258;28;20447;-75
2022/07/18 05:32:12;;;;;;;7.33;5.57;;;15.70;99.90;;;;;;5036969;28;20540;-75
2022/07/18 05:35:10;;;;;;;7.17;5.63;;;15.80;99.90;;;;;;5045308;28;20548;-75
2022/07/18 05:37:59;;;;;;;6.67;5.40;;;15.80;99.90;;;;;;5035630;28;20560;-75
2022/07/18 05:40:47;;;;;;;6.87;5.67;;;15.80;99.90;;;;;;5039620;28;20443;-75
2022/07/18 05:43:36;;;;;;;6.50;5.80;;;15.90;99.90;;;;;;5038874;28;20532;-75
2022/07/18 05:46:24;;;;;;;6.03;5.40;;;15.90;99.90;;;;;;5038598;28;20541;-75
2022/07/18 05:49:12;;;;;;;6.30;5.67;;;16.00;99.90;;;;;;5062062;22;20537;-69
2022/07/18 05:52:02;;;;;;;6.47;5.87;;;16.00;99.90;;;;;;5059007;28;20551;-69
2022/07/18 05:54:50;;;;;;;6.80;5.80;;;16.00;99.90;;;;;;5065528;28;20933;-69
2022/07/18 05:57:39;;;;;;;6.00;5.40;;;16.00;99.90;;;;;;5058410;28;20990;-69
2022/07/18 06:00:27;;;;;;;7.07;6.23;;;16.10;99.90;;;;;;5042372;28;20455;-69
2022/07/18 06:03:15;;;;;;;6.40;5.70;;;16.10;99.90;;;;;;5039938;28;20521;-69
2022/07/18 06:06:04;;;;;;;7.63;5.90;;;16.20;99.90;;;;;;5029998;28;20442;-69
2022/07/18 06:08:54;;;;;;;8.87;6.93;;;16.20;99.90;;;;;;5040634;28;20474;-69
2022/07/18 06:11:42;;;;;;;6.67;6.07;;;16.30;99.90;;;;;;5036845;28;20453;-69
2022/07/18 06:14:31;;;;;;;8.53;6.10;;;16.30;99.90;;;;;;5047746;28;20509;-69
2022/07/18 06:17:20;;;;;;;6.33;5.40;;;16.40;99.90;;;;;;5041960;28;20543;-69
2022/07/18 06:20:08;;;;;;;9.13;5.77;;;16.50;99.90;;;;;;5046484;28;20520;-69
2022/07/18 06:22:57;;;;;;;7.30;6.03;;;16.60;99.90;;;;;;5040303;28;20973;-69
2022/07/18 06:25:46;;;;;;;9.90;6.00;;;16.60;99.90;;;;;;5050355;28;20478;-69
2022/07/18 06:28:34;;;;;;;6.20;5.60;;;16.70;99.90;;;;;;5042727;28;20561;-69
2022/07/18 06:31:23;;;;;;;5.97;5.30;;;16.80;99.90;;;;;;5042174;28;20929;-69
2022/07/18 06:34:11;;;;;;;7.73;6.03;;;16.80;99.90;;;;;;5044401;28;20447;-69
2022/07/18 06:36:59;;;;;;;9.20;5.77;;;16.90;99.90;;;;;;5038110;28;20601;-69
2022/07/18 06:39:47;;;;;;;6.63;5.90;;;16.90;99.90;;;;;;5043202;28;20910;-69
2022/07/18 06:42:37;;;;;;;5.90;5.40;;;17.00;99.90;;;;;;5044104;28;20493;-69
2022/07/18 06:45:26;;;;;;;5.67;4.93;;;17.10;99.90;;;;;;5039717;28;20512;-69
2022/07/18 06:48:14;;;;;;;6.40;5.83;;;17.10;99.90;;;;;;5042461;28;21025;-69
2022/07/18 06:51:04;;;;;;;6.00;5.20;;;17.20;99.90;;;;;;5037303;28;20544;-69
2022/07/18 06:53:52;;;;;;;5.83;5.23;;;17.30;99.90;;;;;;5043901;28;20532;-69
2022/07/18 06:56:41;;;;;;;6.47;5.87;;;17.30;99.90;;;;;;5033602;28;20496;-69
2022/07/18 06:59:30;;;;;;;6.27;5.67;;;17.40;99.90;;;;;;5037635;28;20605;-69
2022/07/18 07:02:21;;;;;;;6.03;5.00;;;17.50;99.90;;;;;;5052004;28;20470;-69
2022/07/18 07:05:10;;;;;;;7.90;6.17;;;17.60;99.90;;;;;;5054825;28;20472;-69
2022/07/18 07:07:59;;;;;;;10.70;5.50;;;17.70;99.90;;;;;;5051214;28;20536;-69
2022/07/18 07:10:47;;;;;;;7.57;6.10;;;17.80;99.90;;;;;;5037499;28;20537;-69
2022/07/18 07:13:35;;;;;;;6.47;5.73;;;17.90;99.90;;;;;;5042879;28;20477;-69
2022/07/18 07:16:25;;;;;;;6.73;6.00;;;18.00;99.90;;;;;;5050676;28;20447;-69
2022/07/18 07:19:13;;;;;;;7.90;6.30;;;18.00;99.90;;;;;;5041508;28;20472;-69
2022/07/18 07:22:02;;;;;;;8.03;5.63;;;18.20;99.90;;;;;;5045384;28;20520;-69
2022/07/18 07:24:50;;;;;;;6.37;5.77;;;18.30;99.90;;;;;;5035908;28;21091;-70
2022/07/18 07:27:38;;;;;;;7.00;5.90;;;18.30;99.90;;;;;;5037734;28;20545;-70
2022/07/18 07:30:27;;;;;;;5.63;5.13;;;18.50;99.90;;;;;;5039810;28;20977;-69
2022/07/18 07:33:17;;;;;;;7.50;6.10;;;18.60;99.90;;;;;;5043351;28;20536;-70
2022/07/18 07:36:06;;;;;;;6.23;5.63;;;18.70;99.90;;;;;;5053258;28;20502;-69
2022/07/18 07:38:55;;;;;;;6.50;5.70;;;18.80;99.90;;;;;;5065864;28;20486;-69
2022/07/18 07:41:43;;;;;;;7.03;5.60;;;18.80;99.90;;;;;;5055669;28;20577;-70
2022/07/18 07:44:31;;;;;;;7.70;6.07;;;18.90;99.90;;;;;;5035763;28;20524;-70
2022/07/18 07:47:19;;;;;;;6.77;5.90;;;19.10;99.90;;;;;;5041989;28;20947;-70
2022/07/18 07:50:10;;;;;;;12.23;6.43;;;19.10;99.90;;;;;;5048669;28;20841;-70
2022/07/18 07:52:59;;;;;;;9.07;5.87;;;19.20;99.90;;;;;;5046716;28;20600;-70
2022/07/18 07:55:47;;;;;;;7.37;6.27;;;19.30;99.90;;;;;;5048279;28;20528;-70
2022/07/18 07:58:36;;;;;;;8.50;5.90;;;19.40;99.90;;;;;;5044883;28;20504;-70
2022/07/18 08:01:24;;;;;;;9.00;6.37;;;19.50;99.90;;;;;;5044103;28;21146;-70
2022/07/18 08:04:14;;;;;;;6.83;5.60;;;19.70;99.90;;;;;;5039885;28;20455;-70
2022/07/18 08:07:04;;;;;;;6.33;5.73;;;19.70;99.90;;;;;;5046052;28;20475;-70
2022/07/18 08:09:53;;;;;;;8.00;6.27;;;19.80;99.90;;;;;;5041861;28;20444;-70
2022/07/18 08:12:42;;;;;;;6.53;5.93;;;19.90;99.90;;;;;;5043751;28;20855;-70
2022/07/18 08:15:30;;;;;;;8.33;6.37;;;20.10;99.90;;;;;;5044646;28;20512;-70
2022/07/18 08:18:18;;;;;;;7.63;6.83;;;20.20;99.90;;;;;;5044459;28;20495;-70
2022/07/18 08:21:06;;;;;;;7.10;5.87;;;20.30;99.90;;;;;;5044782;28;20843;-70
2022/07/18 08:23:56;;;;;;;8.20;6.70;;;20.40;99.90;;;;;;5047662;28;20637;-70
2022/07/18 08:26:52;;;;;;;7.90;7.10;;;20.50;99.90;;;;;;5047439;28;20795;-70
2022/07/18 08:29:40;;;;;;;8.03;7.30;;;20.60;99.90;;;;;;5049763;28;20479;-70
2022/07/18 08:32:49;;;;;;;7.37;6.43;;;20.70;99.90;;;;;;5045937;28;20457;-70
2022/07/18 08:35:37;;;;;;;9.27;7.13;;;20.80;99.90;;;;;;5046282;28;20520;-67
2022/07/18 08:38:26;;;;;;;7.03;6.33;;;20.90;99.90;;;;;;5045800;28;20466;-68
2022/07/18 08:41:17;;;;;;;6.73;6.13;;;20.90;99.90;;;;;;5045868;28;21044;-70
2022/07/18 08:44:07;;;;;;;8.23;6.60;;;21.00;99.90;;;;;;5048459;28;20566;-70
2022/07/18 08:47:00;;;;;;;6.63;6.03;;;21.10;99.90;;;;;;5043749;28;20577;-70
2022/07/18 08:49:49;;;;;;;7.80;6.70;;;21.10;99.90;;;;;;5047757;28;20505;-68
2022/07/18 08:52:38;;;;;;;7.30;6.50;;;21.20;99.90;;;;;;5041807;28;20511;-70
2022/07/18 08:55:41;;;;;;;7.20;6.30;;;21.30;99.90;;;;;;5044495;28;20958;-68
2022/07/18 08:58:31;;;;;;;6.13;5.50;;;21.40;99.90;;;;;;5042388;28;20466;-68
2022/07/18 09:01:35;;;;;;;7.10;6.30;;;21.50;99.90;;;;;;5049839;28;20479;-68
2022/07/18 09:04:33;;;;;;;6.37;5.87;;;21.60;99.90;;;;;;5050535;28;20442;-68
2022/07/18 09:07:27;;;;;;;6.53;5.97;;;21.60;99.90;;;;;;5039230;28;20556;-68
2022/07/18 09:10:16;;;;;;;6.60;6.10;;;21.80;99.90;;;;;;5047335;28;20541;-70
2022/07/18 09:13:04;;;;;;;6.83;5.67;;;21.80;99.90;;;;;;5044855;28;20467;-68
2022/07/18 09:16:02;;;;;;;8.90;6.87;;;21.90;99.90;;;;;;5038315;28;20916;-68
2022/07/18 09:18:50;;;;;;;9.03;6.00;;;21.90;99.90;;;;;;5045647;28;21055;-68
2022/07/18 09:21:38;;;;;;;7.63;6.20;;;22.00;99.90;;;;;;5048965;28;20470;-68
2022/07/18 09:24:49;;;;;;;8.20;5.97;;;22.10;99.90;;;;;;5045674;28;20445;-68
2022/07/18 09:27:45;;;;;;;5.97;5.20;;;22.10;99.90;;;;;;5047218;28;20478;-68
2022/07/18 09:30:35;;;;;;;6.30;5.70;;;22.20;99.90;;;;;;5039131;28;20525;-68
2022/07/18 09:33:25;;;;;;;6.00;5.40;;;22.30;99.90;;;;;;5039247;28;20456;-68
2022/07/18 09:36:13;;;;;;;7.27;5.63;;;22.40;99.90;;;;;;5044135;28;20616;-68
2022/07/18 09:39:02;;;;;;;6.23;5.73;;;22.40;99.90;;;;;;5041070;28;20946;-68
2022/07/18 09:41:50;;;;;;;5.83;5.30;;;22.50;99.90;;;;;;5042038;28;20558;-68
2022/07/18 09:44:38;;;;;;;6.70;5.40;;;22.60;99.90;;;;;;5044028;28;20489;-68
2022/07/18 09:47:27;;;;;;;8.70;5.40;;;22.70;99.90;;;;;;5049064;28;20458;-68
2022/07/18 09:50:23;;;;;;;6.27;5.63;;;22.80;99.90;;;;;;5045633;28;20451;-69
2022/07/18 09:53:14;;;;;;;6.50;5.40;;;22.90;99.90;;;;;;5044649;28;20546;-69
2022/07/18 09:56:24;;;;;;;5.93;5.00;;;23.00;99.90;;;;;;5039774;28;20540;-69
2022/07/18 09:59:13;;;;;;;4.97;4.57;;;23.10;99.90;;;;;;5042323;28;20755;-69
2022/07/18 10:02:01;;;;;;;5.17;4.50;;;23.10;99.90;;;;;;5039678;28;20479;-69
2022/07/18 10:04:50;;;;;;;5.10;4.43;;;23.30;99.90;;;;;;5038730;28;20447;-69
2022/07/18 10:07:40;;;;;;;7.17;5.07;;;23.40;99.90;;;;;;5046223;28;20846;-69
2022/07/18 10:10:30;;;;;;;5.40;4.90;;;23.40;99.90;;;;;;5044101;28;21019;-68
2022/07/18 10:13:20;;;;;;;5.03;4.50;;;23.50;99.90;;;;;;5043918;28;20958;-69
2022/07/18 10:16:09;;;;;;;4.80;4.40;;;23.60;99.90;;;;;;5044810;28;20458;-68
2022/07/18 10:18:59;;;;;;;5.50;5.00;;;23.60;99.90;;;;;;5048835;28;20472;-69
2022/07/18 10:21:49;;;;;;;6.30;4.97;;;23.70;99.90;;;;;;5042478;28;20654;-69
2022/07/18 10:24:41;;;;;;;6.37;5.13;;;23.80;99.90;;;;;;5041408;28;20452;-69
2022/07/18 10:27:48;;;;;;;4.97;4.57;;;23.90;99.90;;;;;;5046427;28;20487;-69
2022/07/18 10:30:44;;;;;;;5.33;4.80;;;23.90;99.90;;;;;;5045594;28;20455;-69
2022/07/18 10:33:41;;;;;;;5.53;5.00;;;24.00;99.90;;;;;;5042354;28;21184;-69
2022/07/18 10:36:29;;;;;;;5.23;4.40;;;24.10;99.90;;;;;;5040491;28;20872;-68
2022/07/18 10:39:20;;;;;;;5.87;5.07;;;24.10;99.90;;;;;;5043966;28;20543;-69
2022/07/18 10:42:19;;;;;;;6.17;5.60;;;24.30;99.90;;;;;;5043365;28;21047;-70
2022/07/18 10:45:28;;;;;;;5.90;5.30;;;24.40;99.90;;;;;;5043226;28;20445;-69
2022/07/18 10:48:53;;;;;;;6.00;5.17;;;24.50;99.90;;;;;;5042244;28;20498;-69
2022/07/18 10:51:42;;;;;;;4.87;4.30;;;24.60;99.90;;;;;;5010661;28;20548;-70
2022/07/18 10:54:30;;;;;;;6.77;5.37;;;24.70;99.90;;;;;;5042084;28;20943;-69
2022/07/18 10:57:20;;;;;;;5.40;4.90;;;24.80;99.90;;;;;;5039833;28;20489;-69
2022/07/18 11:00:10;;;;;;;6.53;5.27;;;24.90;99.90;;;;;;5044566;28;20490;-69
2022/07/18 11:03:05;;;;;;;5.60;5.10;;;24.90;99.90;;;;;;5044693;28;20486;-69
2022/07/18 11:05:56;;;;;;;6.00;5.50;;;25.00;99.90;;;;;;5036249;28;20459;-70
2022/07/18 11:08:44;;;;;;;5.73;5.03;;;25.20;99.90;;;;;;5039568;28;20482;-70
2022/07/18 11:11:32;;;;;;;6.10;5.50;;;25.20;99.90;;;;;;5043447;28;20447;-70
2022/07/18 11:14:54;;;;;;;5.43;4.47;;;25.20;99.90;;;;;;5050763;28;20463;-70
2022/07/18 11:17:58;;;;;;;5.73;5.23;;;25.30;99.90;;;;;;5040465;28;20597;-70
2022/07/18 11:20:50;;;;;;;5.47;4.97;;;25.30;99.90;;;;;;5040962;28;20470;-70
2022/07/18 11:23:43;;;;;;;6.10;5.50;;;25.30;99.90;;;;;;5043239;28;20577;-69
2022/07/18 11:26:32;;;;;;;5.13;4.70;;;25.30;99.90;;;;;;5039740;28;20770;-70
2022/07/18 11:29:21;;;;;;;5.60;5.10;;;25.30;99.90;;;;;;5045994;28;20998;-71
2022/07/18 11:32:09;;;;;;;4.87;4.57;;;25.30;99.90;;;;;;5046482;28;20537;-69
2022/07/18 11:35:00;;;;;;;6.43;5.67;;;25.40;99.90;;;;;;5043100;28;20457;-70
2022/07/18 11:37:49;;;;;;;6.00;5.47;;;25.50;99.90;;;;;;5043248;28;20640;-70
2022/07/18 11:40:47;;;;;;;5.50;5.10;;;25.50;99.90;;;;;;5045442;28;21008;-69
2022/07/18 11:43:35;;;;;;;6.17;4.80;;;25.60;99.90;;;;;;5041654;28;20535;-69
2022/07/18 11:46:26;;;;;;;5.10;4.70;;;25.70;99.90;;;;;;5041187;28;20451;-69
2022/07/18 11:49:14;;;;;;;5.30;4.80;;;25.80;99.90;;;;;;5044491;28;20526;-70
2022/07/18 11:52:04;;;;;;;5.80;5.20;;;25.80;99.90;;;;;;5038140;22;20502;-74
2022/07/18 11:54:53;;;;;;;6.23;5.70;;;25.90;99.90;;;;;;5022069;28;20459;-74
2022/07/18 11:57:41;;;;;;;10.07;5.60;;;26.00;99.90;;;;;;5026948;28;20514;-74
2022/07/18 12:00:37;;;;;;;6.10;5.40;;;26.10;99.90;;;;;;5020516;28;20897;-74
2022/07/18 12:03:26;;;;;;;5.73;5.23;;;26.20;99.90;;;;;;5025479;28;20566;-74
2022/07/18 12:06:16;;;;;;;5.60;5.10;;;26.30;99.90;;;;;;5029494;28;20447;-73
2022/07/18 12:09:06;;;;;;;5.27;4.87;;;26.30;99.90;;;;;;5029922;28;20507;-73
2022/07/18 12:11:54;;;;;;;5.23;4.83;;;26.40;99.90;;;;;;5024914;28;20591;-73
2022/07/18 12:15:03;;;;;;;5.43;5.03;;;26.40;99.90;;;;;;5021342;28;20460;-73
2022/07/18 12:17:51;;;;;;;5.47;4.63;;;26.40;99.90;;;;;;5025786;28;20548;-73
2022/07/18 12:20:39;;;;;;;6.23;5.10;;;26.40;99.90;;;;;;5023537;28;20585;-74
2022/07/18 12:23:29;;;;;;;5.40;4.90;;;26.50;99.90;;;;;;5024281;28;20570;-74
2022/07/18 12:26:32;;;;;;;5.53;4.93;;;26.60;99.90;;;;;;5032922;28;20540;-74
2022/07/18 12:30:02;;;;;;;5.40;4.90;;;26.60;99.90;;;;;;5025580;28;20605;-74
2022/07/18 12:32:53;;;;;;;6.30;4.70;;;26.70;99.90;;;;;;5027526;28;20483;-74
2022/07/18 12:35:42;;;;;;;4.73;4.23;;;26.80;99.90;;;;;;5026995;28;20456;-74
2022/07/18 12:38:31;;;;;;;4.50;4.17;;;26.80;99.90;;;;;;5020990;28;20543;-74
2022/07/18 12:41:28;;;;;;;4.80;4.40;;;26.90;99.90;;;;;;5031311;28;20467;-74
2022/07/18 12:44:18;;;;;;;5.07;4.60;;;27.00;99.90;;;;;;5029397;28;20457;-74
2022/07/18 12:47:06;;;;;;;5.40;5.00;;;27.00;99.90;;;;;;5029422;28;20505;-74
2022/07/18 12:49:55;;;;;;;5.67;4.37;;;27.10;99.90;;;;;;5020702;28;20456;-74
2022/07/18 12:52:43;;;;;;;4.27;3.87;;;27.20;99.90;;;;;;5029613;28;20906;-73
2022/07/18 12:55:31;;;;;;;4.50;4.20;;;27.30;99.90;;;;;;5025234;28;20892;-73
2022/07/18 12:58:20;;;;;;;8.07;4.33;;;27.40;99.90;;;;;;5024835;28;20824;-73
2022/07/18 13:01:10;;;;;;;4.60;4.30;;;27.70;99.90;;;;;;5024465;28;20531;-73
2022/07/18 13:03:58;;;;;;;5.40;4.90;;;27.80;99.90;;;;;;5029594;28;20480;-73
2022/07/18 13:06:46;;;;;;;4.40;4.10;;;28.00;99.90;;;;;;5027122;28;20452;-73
2022/07/18 13:09:34;;;;;;;4.77;4.37;;;28.20;99.90;;;;;;5029095;28;20994;-74
2022/07/18 13:12:23;;;;;;;5.23;4.80;;;28.30;99.90;;;;;;5036778;28;20618;-74
2022/07/18 13:15:11;;;;;;;4.43;4.03;;;28.30;99.90;;;;;;5020835;28;20447;-74
2022/07/18 13:18:01;;;;;;;4.17;3.87;;;28.30;99.90;;;;;;5025100;28;20484;-74
2022/07/18 13:20:50;;;;;;;4.30;3.90;;;28.30;99.90;;;;;;5028506;28;20562;-74
2022/07/18 13:23:38;;;;;;;3.40;3.10;;;28.30;99.90;;;;;;5018248;28;21188;-74
2022/07/18 13:26:26;;;;;;;4.30;3.40;;;28.30;99.90;;;;;;5028720;28;20498;-74
2022/07/18 13:29:15;;;;;;;3.33;3.00;;;28.30;99.90;;;;;;5023741;28;20513;-74
2022/07/18 13:32:04;;;;;;;3.80;3.50;;;28.20;99.90;;;;;;5024117;28;20464;-74
2022/07/18 13:34:53;;;;;;;3.20;3.00;;;28.20;99.90;;;;;;5021838;28;20541;-74
2022/07/18 13:37:42;;;;;;;3.50;3.20;;;28.20;99.90;;;;;;5038158;28;21064;-74
2022/07/18 13:40:30;;;;;;;3.90;3.60;;;28.20;99.90;;;;;;5029774;28;20456;-74
2022/07/18 13:43:18;;;;;;;3.33;3.10;;;28.20;99.90;;;;;;5022135;28;20516;-74
2022/07/18 13:46:07;;;;;;;3.57;3.27;;;28.30;99.90;;;;;;5027722;28;20471;-74
2022/07/18 13:48:55;;;;;;;3.70;3.40;;;28.20;99.90;;;;;;5031742;28;20480;-74
2022/07/18 13:51:45;;;;;;;6.10;3.63;;;28.30;99.90;;;;;;5028260;28;20621;-74
2022/07/18 13:54:33;;;;;;;3.70;3.40;;;28.30;99.90;;;;;;5025356;28;21047;-74
2022/07/18 13:57:22;;;;;;;5.03;4.00;;;28.40;99.90;;;;;;5028760;28;20530;-74
2022/07/18 14:00:11;;;;;;;3.87;3.53;;;28.50;99.90;;;;;;5026853;28;20536;-74
2022/07/18 14:02:59;;;;;;;3.77;3.57;;;28.60;99.90;;;;;;5032867;28;20475;-74
2022/07/18 14:05:48;;;;;;;2.93;2.73;;;28.90;99.90;;;;;;5036665;28;20864;-74
2022/07/18 14:08:37;;;;;;;3.50;3.30;;;29.10;99.90;;;;;;5028103;28;20546;-74
2022/07/18 14:11:26;;;;;;;3.70;3.40;;;29.20;99.90;;;;;;5027850;28;20554;-74
2022/07/18 14:14:14;;;;;;;3.47;3.17;;;29.30;99.90;;;;;;5028515;28;20502;-74
2022/07/18 14:17:02;;;;;;;4.00;3.70;;;;;;;;;;5022088;28;20488;-74
2022/07/18 14:19:51;;;;;;;3.73;3.40;;;;;;;;;;5032693;28;20460;-74
2022/07/18 14:22:40;;;;;;;3.67;3.43;;;;;;;;;;5027901;28;20622;-74
2022/07/18 14:25:30;;;;;;;3.53;3.23;;;;;;;;;;5026292;28;20966;-74
2022/07/18 14:28:19;;;;;;;3.73;3.43;;;;;;;;;;5028221;28;20547;-74
2022/07/18 14:31:07;;;;;;;6.63;3.73;;;;;;;;;;5016463;28;20613;-74
2022/07/18 14:33:56;;;;;;;3.77;3.47;;;;;;;;;;5028136;28;20802;-75
2022/07/18 14:36:45;;;;;;;4.13;3.83;;;;;;;;;;5026295;28;20949;-75
2022/07/18 14:39:33;;;;;;;4.77;3.47;;;;;;;;;;5024837;28;21078;-75
2022/07/18 14:42:24;;;;;;;4.40;4.00;;;;;;;;;;5018955;28;20475;-75
2022/07/18 14:45:13;;;;;;;3.50;3.23;;;;;;;;;;5024732;28;20538;-75
2022/07/18 14:48:01;;;;;;;3.80;3.50;;;;;;;;;;5025018;28;20451;-75
2022/07/18 14:50:50;;;;;;;4.90;3.50;;;;;;;;;;5027825;28;20864;-75